Time;durP1;ratioP1;P1;durP2;ratioP2;P2;SDS_P1;SDS_P2;PMS_P1;PMS_P2;Temp;Humidity;BMP_temperature;BMP_pressure;BME280_temperature;BME280_humidity;BME280_pressure;Samples;Min_cycle;Max_cycle;Signal;HPM_P1;HPM_P2
2023/11/25 00:01:19;;;;;;;1.00;0.20;;;4.00;99.90;;;;;;4808659;29;20058;-77
2023/11/25 00:03:48;;;;;;;1.15;0.25;;;4.10;99.90;;;;;;4797536;29;20065;-78
2023/11/25 00:06:20;;;;;;;2.35;0.50;;;4.00;99.90;;;;;;4810815;29;20050;-75
2023/11/25 00:08:48;;;;;;;2.42;0.65;;;4.10;99.90;;;;;;4817711;29;20103;-77
2023/11/25 00:11:17;;;;;;;3.35;1.02;;;4.00;99.90;;;;;;4804603;29;20038;-78
2023/11/25 00:13:58;;;;;;;1.50;0.40;;;4.00;99.90;;;;;;4814440;29;20110;-75
2023/11/25 00:16:27;;;;;;;1.27;0.32;;;4.00;99.90;;;;;;4811188;29;20045;-77
2023/11/25 00:18:55;;;;;;;0.85;0.30;;;4.00;99.90;;;;;;4797982;29;20130;-75
2023/11/25 00:21:24;;;;;;;0.60;0.20;;;4.00;99.90;;;;;;4792109;29;22625;-74
2023/11/25 00:23:53;;;;;;;1.13;0.30;;;3.90;99.90;;;;;;4784593;29;20070;-75
2023/11/25 00:26:23;;;;;;;1.30;0.63;;;3.90;99.90;;;;;;4812669;29;20057;-77
2023/11/25 00:29:00;;;;;;;0.98;0.55;;;3.90;99.90;;;;;;4790253;29;20084;-75
2023/11/25 00:31:29;;;;;;;1.35;0.43;;;3.90;99.90;;;;;;4764759;29;21113;-75
2023/11/25 00:33:58;;;;;;;2.63;0.57;;;3.90;99.90;;;;;;4793611;29;23010;-75
2023/11/25 00:36:26;;;;;;;1.98;0.43;;;4.20;99.90;;;;;;4792223;29;20162;-74
2023/11/25 00:38:55;;;;;;;1.20;0.40;;;3.80;99.90;;;;;;4762520;29;20103;-74
2023/11/25 00:41:24;;;;;;;1.88;0.60;;;3.90;99.90;;;;;;4761855;29;20154;-75
2023/11/25 00:43:52;;;;;;;1.38;0.60;;;3.80;99.90;;;;;;4790376;29;20062;-75
2023/11/25 00:46:22;;;;;;;2.20;0.50;;;3.80;99.90;;;;;;4773696;29;20541;-74
2023/11/25 00:48:52;;;;;;;4.68;0.52;;;3.80;99.90;;;;;;4814275;29;20058;-77
2023/11/25 00:51:20;;;;;;;1.52;0.30;;;3.70;99.90;;;;;;4756354;29;20062;-76
2023/11/25 00:53:49;;;;;;;2.13;0.40;;;3.70;99.90;;;;;;4776072;29;20052;-77
2023/11/25 00:56:18;;;;;;;1.38;0.40;;;3.70;99.90;;;;;;4770960;29;20152;-75
2023/11/25 00:58:47;;;;;;;1.33;0.25;;;3.80;99.90;;;;;;4771270;29;20039;-76
2023/11/25 01:01:15;;;;;;;1.75;0.50;;;3.70;99.90;;;;;;4755652;29;20066;-75
2023/11/25 01:03:45;;;;;;;1.10;0.43;;;3.70;99.90;;;;;;4790778;29;20053;-75
2023/11/25 01:06:14;;;;;;;1.10;0.40;;;3.70;99.90;;;;;;4773311;29;20050;-76
2023/11/25 01:08:42;;;;;;;1.88;0.30;;;3.70;99.90;;;;;;4773263;29;20050;-75
2023/11/25 01:11:10;;;;;;;1.05;0.30;;;3.60;99.90;;;;;;4757791;29;20716;-75
2023/11/25 01:13:39;;;;;;;0.98;0.20;;;3.70;99.90;;;;;;4771545;29;20054;-75
2023/11/25 01:16:16;;;;;;;1.95;0.30;;;3.70;99.90;;;;;;4755158;29;20074;-77
2023/11/25 01:18:46;;;;;;;2.15;0.22;;;3.60;99.90;;;;;;4775954;29;20795;-76
2023/11/25 01:21:14;;;;;;;1.35;0.30;;;3.60;99.90;;;;;;4764534;29;20089;-75
2023/11/25 01:23:43;;;;;;;1.80;0.40;;;3.70;99.90;;;;;;4759410;29;20068;-75
2023/11/25 01:26:11;;;;;;;1.02;0.40;;;3.60;99.90;;;;;;4759198;29;20065;-76
2023/11/25 01:28:42;;;;;;;2.50;0.40;;;3.60;99.90;;;;;;4751701;29;20174;-75
2023/11/25 01:31:11;;;;;;;0.98;0.28;;;3.60;99.90;;;;;;4757441;29;20097;-76
2023/11/25 01:33:40;;;;;;;0.90;0.20;;;3.60;99.90;;;;;;4782519;29;20845;-77
2023/11/25 01:36:11;;;;;;;3.35;0.25;;;3.60;99.90;;;;;;4784548;29;20057;-76
2023/11/25 01:38:40;;;;;;;1.27;0.43;;;3.60;99.90;;;;;;4774396;29;20739;-76
2023/11/25 01:41:08;;;;;;;1.50;0.20;;;3.70;99.90;;;;;;4773131;29;20058;-76
2023/11/25 01:43:37;;;;;;;0.82;0.20;;;3.70;99.90;;;;;;4755645;29;20063;-76
2023/11/25 01:46:07;;;;;;;4.78;0.77;;;3.60;99.90;;;;;;4774021;29;20142;-77
2023/11/25 01:48:36;;;;;;;0.68;0.20;;;3.60;99.90;;;;;;4777997;29;20046;-75
2023/11/25 01:51:06;;;;;;;0.80;0.20;;;3.60;99.90;;;;;;4777571;29;20427;-75
2023/11/25 01:53:38;;;;;;;2.63;0.28;;;3.70;99.90;;;;;;4761213;29;20731;-77
2023/11/25 01:56:09;;;;;;;1.92;0.22;;;3.60;99.90;;;;;;4758208;29;20774;-76
2023/11/25 01:58:39;;;;;;;0.77;0.20;;;3.60;99.90;;;;;;4760036;29;20065;-76
2023/11/25 02:01:08;;;;;;;3.80;0.50;;;3.50;99.90;;;;;;4757238;29;20107;-71
2023/11/25 02:03:37;;;;;;;0.90;0.20;;;3.50;99.90;;;;;;4771357;29;20058;-72
2023/11/25 02:06:06;;;;;;;2.10;0.28;;;3.50;99.90;;;;;;4757140;29;20055;-72
2023/11/25 02:08:36;;;;;;;1.38;0.28;;;3.40;99.90;;;;;;4772451;29;20054;-73
2023/11/25 02:11:05;;;;;;;0.93;0.13;;;3.40;99.90;;;;;;4775536;29;20784;-73
2023/11/25 02:13:34;;;;;;;1.48;0.63;;;3.40;99.90;;;;;;4755162;29;20391;-72
2023/11/25 02:16:02;;;;;;;1.25;0.17;;;3.30;99.90;;;;;;4771802;29;20066;-73
2023/11/25 02:18:31;;;;;;;1.10;0.20;;;3.40;99.90;;;;;;4775465;29;20633;-73
2023/11/25 02:20:59;;;;;;;1.60;0.30;;;3.30;99.90;;;;;;4772448;29;20058;-74
2023/11/25 02:23:29;;;;;;;1.98;0.20;;;3.30;99.90;;;;;;4771559;29;20968;-73
2023/11/25 02:25:58;;;;;;;1.70;0.25;;;3.30;99.90;;;;;;4753701;29;20059;-73
2023/11/25 02:28:28;;;;;;;2.15;0.35;;;3.30;99.90;;;;;;4783800;29;20042;-73
2023/11/25 02:30:57;;;;;;;3.17;0.40;;;3.20;99.90;;;;;;4740997;29;20181;-74
2023/11/25 02:33:34;;;;;;;1.75;0.35;;;3.20;99.90;;;;;;4773548;29;20200;-73
2023/11/25 02:36:03;;;;;;;1.50;0.28;;;3.20;99.90;;;;;;4792486;29;20557;-74
2023/11/25 02:38:33;;;;;;;1.77;0.70;;;3.10;99.90;;;;;;4757698;29;20054;-74
2023/11/25 02:41:01;;;;;;;3.72;0.40;;;3.10;99.90;;;;;;4774929;29;20235;-73
2023/11/25 02:43:30;;;;;;;4.15;0.60;;;3.10;99.90;;;;;;4787352;29;20141;-73
2023/11/25 02:46:00;;;;;;;1.42;0.35;;;3.10;99.90;;;;;;4757534;29;21600;-74
2023/11/25 02:48:28;;;;;;;1.20;0.30;;;3.00;99.90;;;;;;4789784;29;20141;-73
2023/11/25 02:50:56;;;;;;;1.52;0.40;;;3.00;99.90;;;;;;4754455;29;20058;-74
2023/11/25 02:53:25;;;;;;;3.50;0.40;;;2.90;99.90;;;;;;4794737;29;20057;-72
2023/11/25 02:55:54;;;;;;;2.30;0.40;;;2.90;99.90;;;;;;4768733;29;20197;-73
2023/11/25 02:58:23;;;;;;;0.82;0.20;;;2.90;99.90;;;;;;4774481;29;20058;-73
2023/11/25 03:01:00;;;;;;;4.38;0.93;;;2.80;99.90;;;;;;4772138;29;20146;-74
2023/11/25 03:03:29;;;;;;;7.00;1.67;;;2.80;99.90;;;;;;4773816;29;20061;-72
2023/11/25 03:05:57;;;;;;;24.08;5.63;;;2.80;99.90;;;;;;4769644;29;20063;-72
2023/11/25 03:08:27;;;;;;;36.10;8.38;;;2.80;99.90;;;;;;4780284;29;20062;-72
2023/11/25 03:10:57;;;;;;;84.55;24.30;;;2.80;99.90;;;;;;4808875;29;20046;-74
2023/11/25 03:13:25;;;;;;;23.10;7.35;;;2.80;99.90;;;;;;4803867;29;20181;-75
2023/11/25 03:15:54;;;;;;;18.77;4.72;;;2.80;99.90;;;;;;4804338;29;20050;-75
2023/11/25 03:18:23;;;;;;;14.75;3.58;;;2.80;99.90;;;;;;4784255;29;20145;-75
2023/11/25 03:20:51;;;;;;;21.35;6.03;;;2.70;99.90;;;;;;4803124;29;20058;-75
2023/11/25 03:23:19;;;;;;;33.65;9.38;;;2.70;99.90;;;;;;4804657;29;20396;-75
2023/11/25 03:25:48;;;;;;;11.50;2.40;;;2.70;99.90;;;;;;4789765;29;20153;-75
2023/11/25 03:28:19;;;;;;;5.68;1.48;;;2.70;99.90;;;;;;4804430;29;20058;-75
2023/11/25 03:30:48;;;;;;;4.20;0.95;;;2.70;99.90;;;;;;4805436;29;20054;-74
2023/11/25 03:33:16;;;;;;;3.42;0.90;;;2.70;99.90;;;;;;4789711;29;22584;-74
2023/11/25 03:35:45;;;;;;;3.40;0.63;;;2.70;99.90;;;;;;4791293;29;20058;-75
2023/11/25 03:38:13;;;;;;;4.43;0.88;;;2.70;99.90;;;;;;4803118;29;20054;-75
2023/11/25 03:40:41;;;;;;;4.25;0.68;;;2.70;99.90;;;;;;4802808;29;20090;-74
2023/11/25 03:43:10;;;;;;;1.90;0.65;;;2.70;99.90;;;;;;4805121;29;20077;-74
2023/11/25 03:45:40;;;;;;;1.90;0.55;;;2.70;99.90;;;;;;4804800;29;20114;-74
2023/11/25 03:48:09;;;;;;;1.73;0.40;;;2.70;99.90;;;;;;4786594;29;20107;-74
2023/11/25 03:50:37;;;;;;;1.77;0.50;;;2.80;99.90;;;;;;4803978;29;20050;-75
2023/11/25 03:53:05;;;;;;;2.08;0.80;;;2.80;99.90;;;;;;4786568;29;20502;-75
2023/11/25 03:55:35;;;;;;;3.25;0.70;;;2.80;99.90;;;;;;4802520;29;20054;-75
2023/11/25 03:58:04;;;;;;;3.08;0.50;;;2.80;99.90;;;;;;4760970;29;20693;-75
2023/11/25 04:00:33;;;;;;;2.35;0.75;;;2.70;99.90;;;;;;4769827;29;20054;-75
2023/11/25 04:03:04;;;;;;;4.22;0.73;;;2.70;99.90;;;;;;4782295;29;20538;-75
2023/11/25 04:05:32;;;;;;;4.00;0.65;;;2.70;99.90;;;;;;4770227;29;20054;-75
2023/11/25 04:08:01;;;;;;;3.00;0.80;;;2.70;99.90;;;;;;4772033;29;22306;-75
2023/11/25 04:10:29;;;;;;;4.80;0.82;;;2.70;99.90;;;;;;4771038;29;20054;-75
2023/11/25 04:12:58;;;;;;;4.05;0.70;;;2.70;99.90;;;;;;4756881;29;20050;-75
2023/11/25 04:15:27;;;;;;;3.92;0.60;;;2.70;99.90;;;;;;4768469;29;20062;-75
2023/11/25 04:17:55;;;;;;;3.67;1.25;;;2.70;99.90;;;;;;4760064;29;20058;-75
2023/11/25 04:20:28;;;;;;;4.28;1.17;;;2.70;99.90;;;;;;4780574;29;20050;-75
2023/11/25 04:23:05;;;;;;;5.20;1.70;;;2.60;99.90;;;;;;4780712;29;20415;-71
2023/11/25 04:25:36;;;;;;;3.95;0.70;;;2.60;99.90;;;;;;4778510;29;20058;-71
2023/11/25 04:28:06;;;;;;;4.63;0.88;;;2.50;99.90;;;;;;4800846;29;21851;-71
2023/11/25 04:30:36;;;;;;;6.32;1.40;;;2.50;99.90;;;;;;4802652;29;20057;-72
2023/11/25 04:33:05;;;;;;;2.45;0.80;;;2.50;99.90;;;;;;4804405;29;20058;-73
2023/11/25 04:35:35;;;;;;;3.58;1.00;;;2.50;99.90;;;;;;4804703;29;22710;-72
2023/11/25 04:38:05;;;;;;;7.15;1.30;;;2.50;99.90;;;;;;4805236;29;20085;-72
2023/11/25 04:40:33;;;;;;;3.95;1.08;;;2.50;99.90;;;;;;4803791;29;20430;-72
2023/11/25 04:43:02;;;;;;;2.67;0.90;;;2.50;99.90;;;;;;4802951;29;20066;-72
2023/11/25 04:45:30;;;;;;;4.93;0.77;;;2.50;99.90;;;;;;4807916;29;20046;-74
2023/11/25 04:47:58;;;;;;;3.67;0.82;;;2.50;99.90;;;;;;4793652;29;20499;-72
2023/11/25 04:50:28;;;;;;;5.45;1.33;;;2.50;99.90;;;;;;4801616;29;20050;-72
2023/11/25 04:52:59;;;;;;;3.33;1.08;;;2.50;99.90;;;;;;4807772;29;20883;-72
2023/11/25 04:55:28;;;;;;;1.90;0.75;;;2.40;99.90;;;;;;4804889;29;20061;-71
2023/11/25 04:57:57;;;;;;;1.52;0.68;;;2.40;99.90;;;;;;4810639;29;20058;-71
2023/11/25 05:00:25;;;;;;;1.75;0.50;;;2.40;99.90;;;;;;4809504;29;20108;-72
2023/11/25 05:02:54;;;;;;;2.28;0.50;;;2.40;99.90;;;;;;4806800;29;20059;-73
2023/11/25 05:05:23;;;;;;;3.05;0.73;;;2.40;99.90;;;;;;4806168;29;20058;-72
2023/11/25 05:07:52;;;;;;;1.88;0.40;;;2.40;99.90;;;;;;4813365;29;22702;-71
2023/11/25 05:10:22;;;;;;;2.72;0.85;;;2.40;99.90;;;;;;4810769;29;22558;-73
2023/11/25 05:12:51;;;;;;;3.13;0.98;;;2.30;99.90;;;;;;4807479;29;20062;-73
2023/11/25 05:15:22;;;;;;;2.00;0.60;;;2.30;99.90;;;;;;4793105;29;20058;-71
2023/11/25 05:17:51;;;;;;;2.85;0.60;;;2.30;99.90;;;;;;4807591;29;22493;-72
2023/11/25 05:20:20;;;;;;;4.43;0.60;;;2.30;99.90;;;;;;4807373;29;20038;-73
2023/11/25 05:22:48;;;;;;;3.70;0.60;;;2.30;99.90;;;;;;4804583;29;20060;-73
2023/11/25 05:25:16;;;;;;;2.17;0.52;;;2.40;99.90;;;;;;4809776;29;20046;-71
2023/11/25 05:27:46;;;;;;;2.78;0.40;;;2.30;99.90;;;;;;4810375;29;20058;-71
2023/11/25 05:30:16;;;;;;;3.08;0.63;;;2.30;99.90;;;;;;4818040;29;20066;-74
2023/11/25 05:32:48;;;;;;;2.75;0.50;;;2.30;99.90;;;;;;4829279;29;20046;-75
2023/11/25 05:35:17;;;;;;;2.28;0.63;;;2.30;99.90;;;;;;4824088;29;20084;-75
2023/11/25 05:37:46;;;;;;;2.00;0.60;;;2.00;99.90;;;;;;4829954;29;20111;-74
2023/11/25 05:40:15;;;;;;;3.10;0.60;;;2.20;99.90;;;;;;4812847;29;20050;-74
2023/11/25 05:42:52;;;;;;;2.90;0.65;;;2.20;99.90;;;;;;4828869;29;20042;-74
2023/11/25 05:45:26;;;;;;;3.22;0.77;;;2.20;99.90;;;;;;4818641;29;20062;-75
2023/11/25 05:47:56;;;;;;;5.78;1.10;;;2.30;99.90;;;;;;4827402;29;20043;-78
2023/11/25 05:50:25;;;;;;;6.80;2.13;;;2.10;99.90;;;;;;4804595;29;20085;-75
2023/11/25 05:52:56;;;;;;;11.73;4.55;;;2.20;99.90;;;;;;4817439;29;20043;-74
2023/11/25 05:55:26;;;;;;;17.35;5.55;;;2.00;99.90;;;;;;4819801;29;20035;-76
2023/11/25 05:57:57;;;;;;;11.57;3.95;;;2.00;99.90;;;;;;4822669;29;20102;-77
2023/11/25 06:00:29;;;;;;;5.32;2.65;;;2.10;99.90;;;;;;4821492;29;20507;-75
2023/11/25 06:03:00;;;;;;;7.63;3.13;;;2.20;99.90;;;;;;4818499;29;20042;-77
2023/11/25 06:05:30;;;;;;;5.15;2.13;;;2.00;99.90;;;;;;4815765;29;20050;-74
2023/11/25 06:08:00;;;;;;;5.25;1.65;;;2.10;99.90;;;;;;4817596;29;20047;-75
2023/11/25 06:10:29;;;;;;;5.40;1.60;;;1.90;99.90;;;;;;4818793;29;20038;-74
2023/11/25 06:13:00;;;;;;;4.40;1.40;;;1.90;99.90;;;;;;4815463;29;20141;-75
2023/11/25 06:15:30;;;;;;;2.78;0.95;;;1.90;99.90;;;;;;4796948;29;20062;-76
2023/11/25 06:17:59;;;;;;;5.10;1.50;;;2.20;99.90;;;;;;4819541;29;20042;-74
2023/11/25 06:20:29;;;;;;;2.75;1.33;;;1.90;99.90;;;;;;4800215;29;20054;-74
2023/11/25 06:22:58;;;;;;;5.13;1.55;;;1.90;99.90;;;;;;4819259;29;20050;-75
2023/11/25 06:25:31;;;;;;;2.53;1.23;;;1.90;99.90;;;;;;4833378;29;20038;-75
2023/11/25 06:36:58;;;;;;;5.65;1.77;;;1.90;99.90;;;;;;5854429;23;20119;-76
2023/11/25 06:39:31;;;;;;;5.72;1.65;;;2.10;99.90;;;;;;4851875;29;20050;-77
2023/11/25 06:42:00;;;;;;;3.72;1.27;;;1.90;99.90;;;;;;4825732;29;20056;-78
2023/11/25 06:44:29;;;;;;;2.88;0.90;;;1.90;99.90;;;;;;4823060;29;20072;-76
2023/11/25 06:46:58;;;;;;;1.25;0.70;;;1.90;99.90;;;;;;4812756;29;20057;-77
2023/11/25 06:49:27;;;;;;;2.17;1.00;;;2.00;99.90;;;;;;4830016;29;20063;-77
2023/11/25 06:51:58;;;;;;;4.70;1.13;;;2.00;99.90;;;;;;4828044;29;20150;-77
2023/11/25 06:54:26;;;;;;;18.40;7.45;;;2.10;99.90;;;;;;4831360;29;20049;-76
2023/11/25 06:56:55;;;;;;;38.05;13.43;;;2.10;99.90;;;;;;4831227;29;21213;-77
2023/11/25 06:59:23;;;;;;;39.45;22.30;;;2.20;99.90;;;;;;4805583;29;20097;-76
2023/11/25 07:01:55;;;;;;;9.90;4.90;;;2.20;99.90;;;;;;4845940;29;20089;-79
2023/11/25 07:04:24;;;;;;;8.85;3.85;;;2.20;99.90;;;;;;4843771;29;20212;-80
2023/11/25 07:06:54;;;;;;;8.18;3.42;;;2.20;99.90;;;;;;4881258;23;20102;-78
2023/11/25 07:09:25;;;;;;;10.95;4.90;;;2.30;99.90;;;;;;4820715;29;20037;-79
2023/11/25 07:11:54;;;;;;;15.13;6.95;;;2.40;99.90;;;;;;4823791;29;20153;-78
2023/11/25 07:14:23;;;;;;;11.25;4.20;;;2.00;99.90;;;;;;4821041;29;20136;-78
2023/11/25 07:16:53;;;;;;;9.57;4.90;;;2.40;99.90;;;;;;4820352;29;20057;-78
2023/11/25 07:19:22;;;;;;;9.15;4.22;;;2.30;99.90;;;;;;4833762;29;20098;-78
2023/11/25 07:21:51;;;;;;;10.30;4.13;;;2.50;99.90;;;;;;4821231;29;20041;-78
2023/11/25 07:24:27;;;;;;;6.35;3.05;;;3.60;99.90;;;;;;4821380;29;20042;-78
2023/11/25 07:27:01;;;;;;;5.13;2.20;;;2.70;99.90;;;;;;4841122;29;23347;-79
2023/11/25 07:29:31;;;;;;;4.88;1.67;;;2.50;99.90;;;;;;4821201;29;20029;-79
2023/11/25 07:32:01;;;;;;;6.10;2.13;;;3.60;99.90;;;;;;4819428;29;20046;-79
2023/11/25 07:34:31;;;;;;;6.07;2.17;;;2.90;99.90;;;;;;4821140;29;20038;-78
2023/11/25 07:37:00;;;;;;;6.00;2.72;;;1.50;99.90;;;;;;4830932;29;20138;-79
2023/11/25 07:39:33;;;;;;;8.05;2.83;;;2.60;99.90;;;;;;4823354;29;20062;-79
2023/11/25 07:42:04;;;;;;;11.07;3.85;;;2.60;99.90;;;;;;4820140;29;20152;-79
2023/11/25 07:44:33;;;;;;;10.32;4.70;;;2.60;99.90;;;;;;4823534;29;20042;-79
2023/11/25 07:47:02;;;;;;;6.13;3.13;;;2.90;99.90;;;;;;4822080;29;20082;-78
2023/11/25 07:49:31;;;;;;;8.40;3.40;;;3.00;99.90;;;;;;4820091;29;20061;-77
2023/11/25 07:52:00;;;;;;;6.32;3.30;;;2.90;99.90;;;;;;4826431;29;21950;-79
2023/11/25 07:54:31;;;;;;;7.35;3.00;;;3.00;99.90;;;;;;4827469;29;20093;-78
2023/11/25 07:57:00;;;;;;;8.30;2.95;;;3.10;99.90;;;;;;4823997;29;20079;-79
2023/11/25 07:59:30;;;;;;;6.78;2.97;;;4.30;99.90;;;;;;4829981;29;20060;-79
2023/11/25 08:01:59;;;;;;;6.10;2.42;;;3.30;99.90;;;;;;4830739;29;20053;-80
2023/11/25 08:04:29;;;;;;;6.65;2.60;;;3.30;99.90;;;;;;4847259;29;20045;-78
2023/11/25 08:06:58;;;;;;;4.80;1.60;;;1.70;99.90;;;;;;4830763;29;20102;-78
2023/11/25 08:09:28;;;;;;;9.23;1.38;;;4.50;99.90;;;;;;4838173;29;20050;-78
2023/11/25 08:11:58;;;;;;;2.58;1.38;;;3.80;99.90;;;;;;4824795;29;20794;-77
2023/11/25 08:14:29;;;;;;;3.88;0.77;;;3.70;99.90;;;;;;4818695;29;20057;-77
2023/11/25 08:16:58;;;;;;;3.13;0.90;;;3.80;99.90;;;;;;4825368;29;20042;-77
2023/11/25 08:19:27;;;;;;;3.97;1.17;;;4.00;99.90;;;;;;4830433;29;20037;-77
2023/11/25 08:21:55;;;;;;;4.30;0.68;;;4.00;99.90;;;;;;4838944;29;20026;-76
2023/11/25 08:24:23;;;;;;;2.25;0.65;;;4.00;99.90;;;;;;4828282;29;20200;-75
2023/11/25 08:26:52;;;;;;;3.08;0.70;;;4.00;99.90;;;;;;4832111;29;20434;-77
2023/11/25 08:29:22;;;;;;;6.93;0.50;;;4.10;99.90;;;;;;4834563;29;20156;-78
2023/11/25 08:31:50;;;;;;;2.00;0.43;;;4.10;99.90;;;;;;4840143;29;20065;-78
2023/11/25 08:34:19;;;;;;;2.53;0.55;;;5.10;99.90;;;;;;4808740;29;20058;-77
2023/11/25 08:36:53;;;;;;;2.45;0.77;;;4.20;99.90;;;;;;4840122;29;20041;-77
2023/11/25 08:39:25;;;;;;;2.33;0.40;;;4.30;99.90;;;;;;4826640;29;20054;-77
2023/11/25 08:41:57;;;;;;;1.73;0.50;;;4.30;99.90;;;;;;4814617;29;20120;-78
2023/11/25 08:44:28;;;;;;;1.48;0.52;;;4.30;99.90;;;;;;4816913;29;20164;-77
2023/11/25 08:46:59;;;;;;;2.08;0.63;;;4.50;99.90;;;;;;4817432;29;20048;-77
2023/11/25 08:49:28;;;;;;;2.30;0.40;;;4.50;99.90;;;;;;4832093;29;20069;-75
2023/11/25 08:51:56;;;;;;;2.47;1.30;;;4.50;99.90;;;;;;4825811;29;20077;-76
2023/11/25 08:54:25;;;;;;;3.72;0.50;;;4.60;99.90;;;;;;4816311;29;20050;-78
2023/11/25 08:56:54;;;;;;;3.42;0.65;;;4.70;99.90;;;;;;4832898;29;20125;-77
2023/11/25 08:59:25;;;;;;;1.23;0.30;;;4.80;99.90;;;;;;4822255;29;23063;-76
2023/11/25 09:01:57;;;;;;;1.42;0.30;;;4.80;99.90;;;;;;4823169;29;20054;-78
2023/11/25 09:04:29;;;;;;;1.65;0.50;;;4.80;99.90;;;;;;4829605;29;20049;-79
2023/11/25 09:06:57;;;;;;;2.80;0.50;;;4.90;99.90;;;;;;4802690;29;20102;-77
2023/11/25 09:09:26;;;;;;;2.05;0.30;;;4.90;99.90;;;;;;4820426;29;20090;-77
2023/11/25 09:11:55;;;;;;;5.88;2.50;;;5.00;99.90;;;;;;4822560;29;22032;-76
2023/11/25 09:14:23;;;;;;;2.15;0.55;;;5.00;99.90;;;;;;4839129;29;20046;-77
2023/11/25 09:16:52;;;;;;;1.58;0.40;;;5.20;99.90;;;;;;4817193;29;20411;-76
2023/11/25 09:19:23;;;;;;;1.13;0.30;;;5.20;99.90;;;;;;4822156;29;20062;-76
2023/11/25 09:21:52;;;;;;;1.45;0.40;;;6.10;99.90;;;;;;4825746;29;20050;-78
2023/11/25 09:24:21;;;;;;;4.57;2.30;;;5.20;99.90;;;;;;4826846;29;20380;-77
2023/11/25 09:26:51;;;;;;;2.22;0.55;;;5.40;99.90;;;;;;4817616;29;20064;-77
2023/11/25 09:29:19;;;;;;;1.77;0.30;;;5.20;99.40;;;;;;4819095;29;20794;-77
2023/11/25 09:31:48;;;;;;;2.72;0.40;;;5.20;99.50;;;;;;4822961;29;20118;-78
2023/11/25 09:34:16;;;;;;;3.53;0.30;;;5.10;99.70;;;;;;4815675;29;20058;-77
2023/11/25 09:36:47;;;;;;;2.42;0.60;;;5.20;99.20;;;;;;4813930;29;20656;-76
2023/11/25 09:39:18;;;;;;;5.25;1.98;;;5.20;99.20;;;;;;4833849;29;20060;-76
2023/11/25 09:41:46;;;;;;;5.82;2.72;;;5.30;99.00;;;;;;4814943;29;20065;-76
2023/11/25 09:44:15;;;;;;;1.20;0.40;;;5.20;98.80;;;;;;4837012;29;20081;-77
2023/11/25 09:46:44;;;;;;;1.92;0.63;;;5.40;98.80;;;;;;4823915;29;20068;-78
2023/11/25 09:49:12;;;;;;;2.80;0.45;;;5.40;99.10;;;;;;4824172;29;22209;-77
2023/11/25 09:51:46;;;;;;;2.50;1.05;;;5.50;98.60;;;;;;4821583;29;22676;-77
2023/11/25 09:54:21;;;;;;;1.98;1.05;;;5.20;98.70;;;;;;4829523;29;20153;-77
2023/11/25 09:56:51;;;;;;;1.63;0.40;;;5.70;98.90;;;;;;4814491;29;21212;-77
2023/11/25 09:59:19;;;;;;;1.92;0.90;;;5.10;98.50;;;;;;4816487;29;22676;-76
2023/11/25 10:01:48;;;;;;;1.20;0.40;;;5.10;98.60;;;;;;4834349;29;20861;-76
2023/11/25 10:04:18;;;;;;;1.30;0.45;;;4.60;98.50;;;;;;4819264;29;20145;-78
2023/11/25 10:06:48;;;;;;;1.60;0.40;;;4.80;98.30;;;;;;4814826;29;20184;-78
2023/11/25 10:09:21;;;;;;;4.03;0.68;;;5.40;98.50;;;;;;4828365;29;20054;-76
2023/11/25 10:11:50;;;;;;;2.75;0.85;;;5.30;98.70;;;;;;4818156;29;20061;-76
2023/11/25 10:14:19;;;;;;;1.77;0.38;;;5.20;98.80;;;;;;4818188;29;20049;-79
2023/11/25 10:16:47;;;;;;;2.53;0.50;;;5.20;98.90;;;;;;4835094;29;20060;-79
2023/11/25 10:19:20;;;;;;;1.15;0.50;;;5.00;98.80;;;;;;4817303;29;20065;-79
2023/11/25 10:21:49;;;;;;;;;;;4.90;99.00;;;;;;4818921;29;20050;-78
2023/11/25 10:24:21;;;;;;;1.55;0.60;;;4.90;99.10;;;;;;4832714;29;20082;-79
2023/11/25 10:26:50;;;;;;;2.80;0.80;;;4.90;98.90;;;;;;4824514;29;20179;-78
2023/11/25 10:29:20;;;;;;;3.05;1.02;;;4.80;98.70;;;;;;4816855;29;22804;-77
2023/11/25 10:31:57;;;;;;;2.40;0.93;;;4.80;98.80;;;;;;4816122;29;20178;-79
2023/11/25 10:34:26;;;;;;;1.85;0.70;;;4.80;99.20;;;;;;4809931;29;20145;-79
2023/11/25 10:36:56;;;;;;;1.30;0.60;;;4.80;99.40;;;;;;4814416;29;21557;-78
2023/11/25 10:39:26;;;;;;;4.25;0.68;;;4.70;99.70;;;;;;4826875;29;20058;-79
2023/11/25 10:41:55;;;;;;;2.75;0.70;;;4.70;99.80;;;;;;4811915;29;20754;-77
2023/11/25 10:44:23;;;;;;;1.63;0.50;;;5.30;99.90;;;;;;4815493;29;20050;-79
2023/11/25 10:46:56;;;;;;;3.25;2.22;;;4.60;99.90;;;;;;4816655;29;20988;-78
2023/11/25 10:49:25;;;;;;;2.03;0.70;;;4.60;99.90;;;;;;4826563;29;20101;-79
2023/11/25 10:51:57;;;;;;;4.53;1.75;;;4.20;99.90;;;;;;4806860;29;20058;-78
2023/11/25 10:54:31;;;;;;;1.42;0.80;;;4.60;99.90;;;;;;4815661;29;20054;-76
2023/11/25 10:57:05;;;;;;;2.00;1.05;;;4.60;99.90;;;;;;4814974;29;20215;-79
2023/11/25 10:59:34;;;;;;;0.60;0.30;;;4.60;99.90;;;;;;4814968;29;20065;-76
2023/11/25 11:02:09;;;;;;;2.63;0.75;;;4.80;99.90;;;;;;4817820;29;20106;-80
2023/11/25 11:04:41;;;;;;;1.30;0.55;;;4.90;99.90;;;;;;4819581;29;20042;-77
2023/11/25 11:07:15;;;;;;;4.75;0.77;;;4.90;99.90;;;;;;4831197;29;20058;-79
2023/11/25 11:09:50;;;;;;;2.17;0.93;;;4.80;99.90;;;;;;4813376;29;20066;-79
2023/11/25 11:12:27;;;;;;;4.35;0.90;;;4.80;99.90;;;;;;4816561;29;22577;-75
2023/11/25 11:15:03;;;;;;;2.90;0.50;;;4.70;99.90;;;;;;4829103;29;20074;-78
2023/11/25 11:17:40;;;;;;;2.38;0.70;;;4.70;99.60;;;;;;4810966;29;20986;-79
2023/11/25 11:20:12;;;;;;;2.55;1.13;;;4.80;99.80;;;;;;4818792;29;20057;-78
2023/11/25 11:22:43;;;;;;;3.60;1.90;;;4.80;99.90;;;;;;4813574;29;20060;-79
2023/11/25 11:25:19;;;;;;;8.85;5.28;;;4.80;99.90;;;;;;4823460;29;20069;-79
2023/11/25 11:27:55;;;;;;;2.65;1.73;;;4.90;99.90;;;;;;4826520;29;20069;-79
2023/11/25 11:30:40;;;;;;;1.95;0.70;;;4.90;99.90;;;;;;4818600;29;20057;-78
2023/11/25 11:33:10;;;;;;;5.35;2.85;;;4.90;99.90;;;;;;4810293;29;20054;-77
2023/11/25 11:35:40;;;;;;;2.92;0.80;;;4.80;99.90;;;;;;4814730;29;20101;-78
2023/11/25 11:38:26;;;;;;;2.05;1.00;;;4.70;99.90;;;;;;4805344;29;20054;-76
2023/11/25 11:40:59;;;;;;;5.18;0.65;;;4.90;99.90;;;;;;4808828;29;20066;-79
2023/11/25 11:43:28;;;;;;;;;;;5.10;99.90;;;;;;4814717;29;20058;-76
2023/11/25 11:45:58;;;;;;;1.40;0.20;;;5.40;99.80;;;;;;4813706;29;20028;-78
2023/11/25 11:48:30;;;;;;;1.23;0.32;;;5.30;98.70;;;;;;4824944;29;20307;-76
2023/11/25 11:50:59;;;;;;;0.82;0.20;;;5.10;98.00;;;;;;4820727;29;20056;-78
2023/11/25 11:53:27;;;;;;;1.60;0.50;;;5.00;97.70;;;;;;4838123;29;20569;-79
2023/11/25 11:55:57;;;;;;;1.35;0.47;;;5.10;97.90;;;;;;4815185;29;20049;-79
2023/11/25 11:58:27;;;;;;;2.63;1.20;;;5.10;97.50;;;;;;4828052;29;20065;-79
2023/11/25 12:01:08;;;;;;;0.98;0.30;;;5.20;97.50;;;;;;4808398;29;20100;-80
2023/11/25 12:03:37;;;;;;;1.35;0.70;;;5.10;96.60;;;;;;4818390;29;22277;-78
2023/11/25 12:06:07;;;;;;;3.08;1.95;;;5.10;96.40;;;;;;4807218;29;20062;-78
2023/11/25 12:08:37;;;;;;;2.45;0.30;;;5.10;96.70;;;;;;4828837;29;20062;-79
2023/11/25 12:11:08;;;;;;;0.93;0.47;;;5.10;96.40;;;;;;4803455;29;20065;-79
2023/11/25 12:13:38;;;;;;;4.15;1.23;;;5.10;95.90;;;;;;4807550;29;20148;-77
2023/11/25 12:16:08;;;;;;;3.20;0.45;;;5.10;96.20;;;;;;4832874;29;20125;-78
2023/11/25 12:18:37;;;;;;;0.57;0.10;;;5.10;95.80;;;;;;4810160;29;20057;-76
2023/11/25 12:21:06;;;;;;;2.50;0.10;;;5.10;94.80;;;;;;4801886;29;20090;-79
2023/11/25 12:23:34;;;;;;;1.83;0.20;;;5.10;94.60;;;;;;4803758;29;20521;-80
2023/11/25 12:26:23;;;;;;;1.00;0.20;;;5.20;94.00;;;;;;4802842;29;20066;-78
2023/11/25 12:28:51;;;;;;;0.55;0.10;;;5.40;94.20;;;;;;4805347;29;20167;-79
2023/11/25 12:31:20;;;;;;;0.52;0.10;;;5.40;93.70;;;;;;4793903;29;20057;-76
2023/11/25 12:33:49;;;;;;;1.02;0.20;;;5.30;93.50;;;;;;4802243;29;20054;-77
2023/11/25 12:36:19;;;;;;;0.57;0.40;;;5.30;93.50;;;;;;4793134;29;20545;-76
2023/11/25 12:38:48;;;;;;;1.92;0.30;;;5.20;93.40;;;;;;4781235;29;20602;-76
2023/11/25 12:41:18;;;;;;;2.00;0.40;;;5.20;93.70;;;;;;4788001;29;20058;-75
2023/11/25 12:44:09;;;;;;;2.10;0.40;;;5.10;93.50;;;;;;4805016;29;20074;-74
2023/11/25 12:46:41;;;;;;;0.70;0.20;;;5.00;93.30;;;;;;4806009;29;20888;-75
2023/11/25 12:49:18;;;;;;;2.30;0.50;;;5.10;93.60;;;;;;4800638;29;20085;-74
2023/11/25 12:51:47;;;;;;;1.17;0.40;;;5.20;93.40;;;;;;4791464;29;20050;-75
2023/11/25 12:54:16;;;;;;;2.92;0.70;;;5.20;93.10;;;;;;4810802;29;20049;-76
2023/11/25 12:56:50;;;;;;;2.65;0.47;;;5.10;93.40;;;;;;4809119;29;22507;-77
2023/11/25 12:59:23;;;;;;;0.85;0.20;;;5.10;93.20;;;;;;4789047;29;20054;-76
2023/11/25 13:01:52;;;;;;;2.05;0.30;;;5.00;92.80;;;;;;4785941;29;20061;-76
2023/11/25 13:04:20;;;;;;;9.02;5.18;;;4.90;92.80;;;;;;4787913;29;20415;-77
2023/11/25 13:06:50;;;;;;;8.70;6.32;;;4.90;93.00;;;;;;4794530;29;20062;-74
2023/11/25 13:09:27;;;;;;;1.73;0.50;;;4.90;93.10;;;;;;4802372;29;20719;-74
2023/11/25 13:11:56;;;;;;;0.70;0.25;;;4.90;92.50;;;;;;4791612;29;22104;-75
2023/11/25 13:14:26;;;;;;;1.33;0.32;;;4.90;91.80;;;;;;4792305;29;20046;-75
2023/11/25 13:16:55;;;;;;;1.35;0.40;;;5.00;91.70;;;;;;4803763;29;20142;-74
2023/11/25 13:19:25;;;;;;;1.48;0.60;;;5.00;91.40;;;;;;4790396;29;20522;-74
2023/11/25 13:21:54;;;;;;;1.73;0.60;;;5.00;91.40;;;;;;4794855;29;20442;-75